Time;durP1;ratioP1;P1;durP2;ratioP2;P2;SDS_P1;SDS_P2;PMS_P1;PMS_P2;Temp;Humidity;BMP_temperature;BMP_pressure;BME280_temperature;BME280_humidity;BME280_pressure;Samples;Min_cycle;Max_cycle;Signal;HPM_P1;HPM_P2
2022/05/06 00:00:32;;;;;;;;;;;;;;;11.05;55.03;100764.91;4996229;28;2252;-94
2022/05/06 00:02:59;;;;;;;;;;;;;;;11.05;54.92;100767.59;4994784;28;2490;-94
2022/05/06 00:05:25;;;;;;;;;;;;;;;11.04;54.82;100768.66;5011968;28;1901;-94
2022/05/06 00:07:52;;;;;;;;;;;;;;;11.03;54.83;100767.00;5014277;28;1207;-94
2022/05/06 00:10:18;;;;;;;;;;;;;;;11.02;55.00;100769.91;5004138;28;4307;-94
2022/05/06 00:12:45;;;;;;;;;;;;;;;11.00;54.94;100763.91;5001786;28;1064;-94
2022/05/06 00:15:12;;;;;;;;;;;;;;;10.99;54.90;100765.78;4999995;28;1926;-94
2022/05/06 00:17:38;;;;;;;;;;;;;;;10.98;54.80;100768.69;4997996;28;1392;-94
2022/05/06 00:20:06;;;;;;;;;;;;;;;10.97;54.80;100769.72;5004042;28;3465;-94
2022/05/06 00:22:32;;;;;;;;;;;;;;;10.97;54.87;100775.13;5002307;28;1986;-94
2022/05/06 00:24:59;;;;;;;;;;;;;;;10.95;54.90;100777.22;4999322;28;2381;-94
2022/05/06 00:27:25;;;;;;;;;;;;;;;10.94;54.79;100775.56;5014208;28;1377;-94
2022/05/06 00:29:52;;;;;;;;;;;;;;;10.92;54.89;100773.09;4986663;28;3566;-94
2022/05/06 00:32:18;;;;;;;;;;;;;;;10.91;54.77;100780.34;5003002;28;1197;-94
2022/05/06 00:34:45;;;;;;;;;;;;;;;10.90;54.88;100785.94;5004405;28;2054;-94
2022/05/06 00:37:11;;;;;;;;;;;;;;;10.89;54.76;100785.13;5011422;28;2567;-95
2022/05/06 00:39:38;;;;;;;;;;;;;;;10.87;54.74;100789.88;4989838;28;4170;-94
2022/05/06 00:42:04;;;;;;;;;;;;;;;10.86;54.72;100780.16;4983220;28;1918;-94
2022/05/06 00:44:31;;;;;;;;;;;;;;;10.85;54.87;100785.75;5008085;28;2271;-95
2022/05/06 00:46:58;;;;;;;;;;;;;;;10.84;54.82;100789.50;5013906;28;1917;-95
2022/05/06 00:49:24;;;;;;;;;;;;;;;10.81;54.67;100787.25;5006205;28;4459;-94
2022/05/06 00:51:52;;;;;;;;;;;;;;;10.80;54.76;100789.13;4983019;28;1197;-94
2022/05/06 00:54:21;;;;;;;;;;;;;;;10.80;54.75;100791.81;4989084;28;1717;-95
2022/05/06 00:56:47;;;;;;;;;;;;;;;10.78;54.72;100793.88;5014234;28;1351;-95
2022/05/06 00:59:14;;;;;;;;;;;;;;;10.78;54.57;100787.66;5006840;28;4164;-94
2022/05/06 01:01:40;;;;;;;;;;;;;;;10.75;54.75;100786.22;5004795;28;4177;-94
2022/05/06 01:04:07;;;;;;;;;;;;;;;10.75;54.74;100780.84;5021578;28;1652;-94
2022/05/06 01:06:33;;;;;;;;;;;;;;;10.73;54.70;100782.91;5017289;28;1157;-95
2022/05/06 01:09:00;;;;;;;;;;;;;;;10.73;54.69;100788.31;5003441;28;4535;-94
2022/05/06 01:11:26;;;;;;;;;;;;;;;10.70;54.62;100780.66;5005782;28;1165;-94
2022/05/06 01:13:55;;;;;;;;;;;;;;;10.70;54.64;100780.66;5006331;28;1941;-94
2022/05/06 01:16:21;;;;;;;;;;;;;;;10.67;54.64;100767.63;5003714;28;2390;-95
2022/05/06 01:18:48;;;;;;;;;;;;;;;10.67;54.66;100778.38;5015633;28;2379;-95
2022/05/06 01:21:15;;;;;;;;;;;;;;;10.65;54.56;100784.00;4980423;28;1236;-94
2022/05/06 01:23:41;;;;;;;;;;;;;;;10.65;54.57;100783.19;5009516;28;2095;-94
2022/05/06 01:26:08;;;;;;;;;;;;;;;10.64;54.58;100782.34;4983941;28;1286;-94
2022/05/06 01:28:35;;;;;;;;;;;;;;;10.63;54.57;100782.56;4982999;28;2692;-95
2022/05/06 01:31:01;;;;;;;;;;;;;;;10.61;54.41;100780.06;5014243;28;2003;-94
2022/05/06 01:33:28;;;;;;;;;;;;;;;10.60;54.46;100780.31;5002542;28;2293;-95
2022/05/06 01:35:55;;;;;;;;;;;;;;;10.59;54.51;100787.56;5001884;28;2056;-94
2022/05/06 01:38:22;;;;;;;;;;;;;;;10.58;54.61;100782.38;4999197;28;2743;-94
2022/05/06 01:40:48;;;;;;;;;;;;;;;10.56;54.47;100790.69;5016556;28;1469;-94
2022/05/06 01:43:15;;;;;;;;;;;;;;;10.55;54.54;100786.31;4999980;28;3864;-94
2022/05/06 01:45:41;;;;;;;;;;;;;;;10.54;54.37;100798.13;4995339;28;4065;-93
2022/05/06 01:48:08;;;;;;;;;;;;;;;10.55;54.33;100805.16;5017572;28;2466;-94
2022/05/06 01:50:35;;;;;;;;;;;;;;;10.52;54.54;100800.22;4987447;28;1511;-95
2022/05/06 01:53:01;;;;;;;;;;;;;;;10.51;54.37;100803.94;5003166;28;2231;-94
2022/05/06 01:55:28;;;;;;;;;;;;;;;10.51;54.44;100800.44;5005366;28;1855;-95
2022/05/06 01:57:55;;;;;;;;;;;;;;;10.48;54.44;100796.31;5017006;28;2193;-94
2022/05/06 02:00:21;;;;;;;;;;;;;;;10.46;54.39;100793.81;5007866;28;2910;-95
2022/05/06 02:02:48;;;;;;;;;;;;;;;10.46;54.42;100796.50;5007390;28;2023;-94
2022/05/06 02:05:17;;;;;;;;;;;;;;;10.45;54.31;100796.72;4994041;28;2441;-94
2022/05/06 02:07:43;;;;;;;;;;;;;;;10.42;54.22;100795.28;4997345;28;1528;-94
2022/05/06 02:10:10;;;;;;;;;;;;;;;10.42;54.24;100794.47;5006500;28;4151;-94
2022/05/06 02:12:36;;;;;;;;;;;;;;;10.40;54.33;100794.66;4992039;28;1913;-94
2022/05/06 02:15:03;;;;;;;;;;;;;;;10.38;54.42;100795.91;5000213;28;1886;-94
2022/05/06 02:17:29;;;;;;;;;;;;;;;10.37;54.29;100791.56;5015128;28;1527;-94
2022/05/06 02:19:56;;;;;;;;;;;;;;;10.37;54.25;100805.03;4991335;28;4075;-94
2022/05/06 02:22:23;;;;;;;;;;;;;;;10.36;54.27;100801.53;5014876;28;1971;-94
2022/05/06 02:24:50;;;;;;;;;;;;;;;10.34;54.07;100802.78;5009756;28;2393;-94
2022/05/06 02:27:17;;;;;;;;;;;;;;;10.33;54.22;100801.94;4999463;28;1439;-94
2022/05/06 02:33:12;;;;;;;;;;;;;;;10.31;54.25;100798.63;4996731;28;4373;-94
2022/05/06 02:35:15;;;;;;;;;;;;;;;10.27;54.21;100793.91;4985955;28;1947;-94
2022/05/06 02:37:41;;;;;;;;;;;;;;;10.26;54.09;100786.81;5008505;28;1895;-95
2022/05/06 02:40:08;;;;;;;;;;;;;;;10.26;54.18;100792.19;5007381;28;3837;-94
2022/05/06 02:42:35;;;;;;;;;;;;;;;10.23;54.19;100788.91;5008338;28;1915;-94
2022/05/06 02:45:01;;;;;;;;;;;;;;;10.23;54.08;100785.38;4998358;28;2453;-94
2022/05/06 02:47:29;;;;;;;;;;;;;;;10.21;54.12;100788.28;5025528;28;1612;-94
2022/05/06 02:49:55;;;;;;;;;;;;;;;10.19;54.19;100797.59;5002924;28;4197;-94
2022/05/06 02:52:22;;;;;;;;;;;;;;;10.18;54.13;100795.97;5014529;28;2175;-94
2022/05/06 02:54:48;;;;;;;;;;;;;;;10.16;54.05;100793.47;4988950;28;4312;-95
2022/05/06 02:57:15;;;;;;;;;;;;;;;10.15;54.30;100793.69;5002432;28;1307;-94
2022/05/06 02:59:41;;;;;;;;;;;;;;;10.14;54.04;100798.22;5016386;28;2122;-94
2022/05/06 03:02:08;;;;;;;;;;;;;;;10.12;54.22;100791.41;5014156;28;2540;-94
2022/05/06 03:04:36;;;;;;;;;;;;;;;10.11;54.07;100790.56;4994061;28;1921;-94
2022/05/06 03:07:06;;;;;;;;;;;;;;;10.08;54.13;100791.00;5016721;28;1030;-94
2022/05/06 03:09:33;;;;;;;;;;;;;;;10.07;54.03;100789.34;4990827;28;2251;-94
2022/05/06 03:11:59;;;;;;;;;;;;;;;10.06;54.24;100794.94;4999105;28;1081;-94
2022/05/06 03:14:26;;;;;;;;;;;;;;;10.05;53.96;100788.72;4999983;28;2206;-94
2022/05/06 03:16:52;;;;;;;;;;;;;;;10.04;54.16;100792.47;4999004;28;1308;-94
2022/05/06 03:19:19;;;;;;;;;;;;;;;10.02;54.10;100789.16;4994740;28;2768;-94
2022/05/06 03:21:46;;;;;;;;;;;;;;;10.01;54.18;100787.50;4985058;28;2029;-94
2022/05/06 03:24:12;;;;;;;;;;;;;;;9.99;54.06;100792.25;4997558;28;4229;-94
2022/05/06 03:26:39;;;;;;;;;;;;;;;9.98;53.97;100796.00;4997316;28;2192;-94
2022/05/06 03:29:06;;;;;;;;;;;;;;;9.98;54.03;100796.00;5015040;28;1630;-94
2022/05/06 03:31:32;;;;;;;;;;;;;;;9.95;53.91;100797.25;5013381;28;1871;-94
2022/05/06 03:33:59;;;;;;;;;;;;;;;9.94;54.00;100800.13;5007795;28;2885;-95
2022/05/06 03:36:25;;;;;;;;;;;;;;;9.92;53.85;100803.03;5021227;28;1600;-95
2022/05/06 03:38:52;;;;;;;;;;;;;;;9.89;54.09;100794.56;5015502;28;1602;-94
2022/05/06 03:41:19;;;;;;;;;;;;;;;9.89;54.12;100800.78;5016159;28;2095;-94
2022/05/06 03:43:45;;;;;;;;;;;;;;;9.86;53.95;100806.56;5010990;28;2418;-94
2022/05/06 03:46:12;;;;;;;;;;;;;;;9.85;54.05;100802.19;4992633;28;1577;-94
2022/05/06 03:48:38;;;;;;;;;;;;;;;9.82;54.17;100805.31;4997629;28;3451;-95
2022/05/06 03:51:22;;;;;;;;;;;;;;;9.82;53.89;100802.63;5000576;28;2402;-95
2022/05/06 03:53:49;;;;;;;;;;;;;;;9.81;54.02;100800.97;5002165;28;2462;-94
2022/05/06 03:56:15;;;;;;;;;;;;;;;9.78;53.98;100801.41;4996342;28;3755;-95
2022/05/06 03:58:42;;;;;;;;;;;;;;;9.77;53.97;100802.44;4995070;28;2301;-94
2022/05/06 04:01:08;;;;;;;;;;;;;;;9.75;53.84;100816.09;5011893;28;1362;-94
2022/05/06 04:03:35;;;;;;;;;;;;;;;9.74;53.81;100822.50;4995096;28;4851;-95
2022/05/06 04:06:01;;;;;;;;;;;;;;;9.72;53.97;100821.06;5012066;28;1427;-94
2022/05/06 04:08:28;;;;;;;;;;;;;;;9.71;54.13;100822.09;5000068;28;2521;-94
2022/05/06 04:10:54;;;;;;;;;;;;;;;9.69;54.11;100837.59;4987313;28;1253;-94
2022/05/06 04:13:22;;;;;;;;;;;;;;;9.66;53.91;100821.88;5012048;28;4311;-95
2022/05/06 04:15:48;;;;;;;;;;;;;;;9.66;53.97;100827.25;4996189;28;1605;-94
2022/05/06 04:18:15;;;;;;;;;;;;;;;9.64;54.01;100818.56;4987193;28;2947;-94
2022/05/06 04:23:30;;;;;;;;;;;;;;;9.60;53.84;100828.91;4984227;28;1931;-94
2022/05/06 04:25:58;;;;;;;;;;;;;;;9.59;54.05;100823.72;5013624;28;1359;-94
2022/05/06 04:28:24;;;;;;;;;;;;;;;9.57;53.99;100823.94;5007621;28;2505;-94
2022/05/06 04:30:51;;;;;;;;;;;;;;;9.57;54.13;100823.13;5006230;28;1532;-94
2022/05/06 04:33:18;;;;;;;;;;;;;;;9.56;53.88;100833.06;5013104;28;1788;-94
2022/05/06 04:35:44;;;;;;;;;;;;;;;9.55;53.75;100834.09;5000057;28;1292;-95
2022/05/06 04:38:11;;;;;;;;;;;;;;;9.53;53.79;100831.63;4980069;28;2772;-94
2022/05/06 04:40:38;;;;;;;;;;;;;;;9.52;53.92;100837.19;5006554;28;1986;-94
2022/05/06 04:43:04;;;;;;;;;;;;;;;9.52;53.89;100835.31;5007306;28;1981;-94
2022/05/06 04:45:31;;;;;;;;;;;;;;;9.50;53.92;100842.78;5005649;28;1401;-95
2022/05/06 04:47:58;;;;;;;;;;;;;;;9.50;53.83;100840.09;5014107;28;2083;-94
2022/05/06 04:50:24;;;;;;;;;;;;;;;9.48;53.93;100839.47;5005149;28;2462;-94
2022/05/06 04:52:52;;;;;;;;;;;;;;;9.47;53.87;100840.50;4994596;28;1216;-94
2022/05/06 04:55:18;;;;;;;;;;;;;;;9.47;53.70;100837.81;5006982;28;3427;-94
2022/05/06 04:57:45;;;;;;;;;;;;;;;9.46;53.87;100836.13;5018869;28;1045;-94
2022/05/06 05:00:11;;;;;;;;;;;;;;;9.45;53.82;100847.13;4993458;28;2151;-94
2022/05/06 05:02:38;;;;;;;;;;;;;;;9.43;53.81;100839.25;5016883;28;1906;-94
2022/05/06 05:05:04;;;;;;;;;;;;;;;9.42;53.62;100842.97;5009535;28;4755;-94
2022/05/06 05:07:31;;;;;;;;;;;;;;;9.43;53.72;100835.72;5000415;28;1276;-94
2022/05/06 05:09:57;;;;;;;;;;;;;;;9.42;53.67;100836.78;5009263;28;3582;-94
2022/05/06 05:12:24;;;;;;;;;;;;;;;9.41;53.66;100837.78;5011982;28;1517;-94
2022/05/06 05:14:51;;;;;;;;;;;;;;;9.39;53.59;100840.69;5002403;28;1529;-94
2022/05/06 05:17:18;;;;;;;;;;;;;;;9.39;53.84;100838.00;5001503;28;1538;-95
2022/05/06 05:19:44;;;;;;;;;;;;;;;9.40;53.67;100836.13;4995200;28;2296;-94
2022/05/06 05:22:11;;;;;;;;;;;;;;;9.39;53.49;100829.94;4998772;28;1463;-94
2022/05/06 05:24:37;;;;;;;;;;;;;;;9.39;53.42;100832.63;4994946;28;4761;-94
2022/05/06 05:27:04;;;;;;;;;;;;;;;9.38;53.47;100827.44;4984504;28;1237;-94
2022/05/06 05:29:30;;;;;;;;;;;;;;;9.38;53.44;100836.34;5000994;28;1661;-94
2022/05/06 05:31:57;;;;;;;;;;;;;;;9.37;53.40;100850.00;5008967;28;1994;-95
2022/05/06 05:34:23;;;;;;;;;;;;;;;9.37;53.43;100841.94;5003528;28;2427;-94
2022/05/06 05:36:50;;;;;;;;;;;;;;;9.36;53.46;100843.78;5010876;28;1386;-95
2022/05/06 05:39:17;;;;;;;;;;;;;;;9.36;53.41;100837.59;5013075;28;4986;-94
2022/05/06 05:41:43;;;;;;;;;;;;;;;9.35;53.51;100839.44;5015022;28;2628;-94
2022/05/06 05:49:38;;;;;;;;;;;;;;;9.33;53.33;100830.75;4991922;28;4446;-93
2022/05/06 05:52:05;;;;;;;;;;;;;;;9.31;53.31;100825.56;5001630;28;1255;-94
2022/05/06 05:54:31;;;;;;;;;;;;;;;9.31;53.35;100825.56;5011691;28;2303;-94
2022/05/06 05:56:58;;;;;;;;;;;;;;;9.32;53.22;100831.78;5000233;28;1589;-94
2022/05/06 05:59:24;;;;;;;;;;;;;;;9.31;53.37;100825.56;5011742;28;1956;-94
2022/05/06 06:01:51;;;;;;;;;;;;;;;9.30;53.24;100829.31;5000585;28;1580;-94
2022/05/06 06:04:17;;;;;;;;;;;;;;;9.31;53.35;100835.50;5003868;28;4711;-94
2022/05/06 06:06:44;;;;;;;;;;;;;;;9.30;53.18;100833.88;5013395;28;1943;-93
2022/05/06 06:09:11;;;;;;;;;;;;;;;9.31;53.24;100827.44;5014954;28;2183;-93
2022/05/06 06:11:37;;;;;;;;;;;;;;;9.29;53.10;100832.19;5015254;28;1451;-94
2022/05/06 06:14:05;;;;;;;;;;;;;;;9.29;53.21;100827.66;5008581;28;4739;-94
2022/05/06 06:16:31;;;;;;;;;;;;;;;9.28;53.07;100827.84;4998835;28;2202;-95
2022/05/06 06:18:58;;;;;;;;;;;;;;;9.28;53.17;100833.22;5005376;28;1976;-96
2022/05/06 06:21:24;;;;;;;;;;;;;;;9.28;53.34;100833.22;5013461;28;1753;-94
2022/05/06 06:23:51;;;;;;;;;;;;;;;9.27;53.05;100824.34;4988775;28;2368;-95
2022/05/06 06:26:17;;;;;;;;;;;;;;;9.29;53.20;100824.13;5005014;28;1173;-93
2022/05/06 06:28:44;;;;;;;;;;;;;;;9.27;53.24;100828.91;5005399;28;4285;-94
2022/05/06 06:31:10;;;;;;;;;;;;;;;9.26;53.06;100822.66;5013900;28;1423;-94
2022/05/06 06:33:38;;;;;;;;;;;;;;;9.25;53.01;100826.41;5010680;28;2177;-94
2022/05/06 06:36:05;;;;;;;;;;;;;;;9.27;52.95;100829.72;4987995;28;1302;-94
2022/05/06 06:38:31;;;;;;;;;;;;;;;9.26;53.01;100833.41;5000783;28;5009;-94
2022/05/06 06:40:59;;;;;;;;;;;;;;;9.29;52.99;100822.28;5008553;28;2322;-94
2022/05/06 06:43:26;;;;;;;;;;;;;;;9.28;53.02;100830.53;5010938;28;1985;-94
2022/05/06 06:45:52;;;;;;;;;;;;;;;9.29;52.90;100830.34;4995485;28;1435;-94
2022/05/06 06:48:19;;;;;;;;;;;;;;;9.26;52.81;100825.34;5014857;28;2597;-94
2022/05/06 06:50:45;;;;;;;;;;;;;;;9.25;52.70;100831.78;4993928;28;2372;-94
2022/05/06 06:53:12;;;;;;;;;;;;;;;9.27;52.93;100834.28;5012523;28;4218;-94
2022/05/06 06:55:38;;;;;;;;;;;;;;;9.25;52.96;100821.03;4999933;28;5089;-94
2022/05/06 06:58:05;;;;;;;;;;;;;;;9.26;52.89;100828.03;5012979;28;2291;-93
2022/05/06 07:00:31;;;;;;;;;;;;;;;9.27;52.87;100828.91;5018622;28;3957;-93
2022/05/06 07:02:58;;;;;;;;;;;;;;;9.28;52.91;100825.97;5004963;28;2285;-93
2022/05/06 07:05:24;;;;;;;;;;;;;;;9.27;53.00;100828.91;4993006;28;5005;-94
2022/05/06 07:13:20;;;;;;;;;;;;;;;9.29;52.68;100829.50;4997094;28;2434;-94
2022/05/06 07:15:46;;;;;;;;;;;;;;;9.27;52.84;100829.72;5010233;28;1412;-93
2022/05/06 07:18:13;;;;;;;;;;;;;;;9.29;52.65;100824.97;5013269;28;4088;-93
2022/05/06 07:20:39;;;;;;;;;;;;;;;9.28;52.62;100825.97;4998888;28;5436;-94
2022/05/06 07:23:06;;;;;;;;;;;;;;;9.28;52.80;100825.97;4997037;28;2592;-93
2022/05/06 07:25:33;;;;;;;;;;;;;;;9.27;52.54;100820.84;5020097;28;1491;-93
2022/05/06 07:27:59;;;;;;;;;;;;;;;9.27;52.74;100821.66;5014099;28;2248;-94
2022/05/06 07:30:26;;;;;;;;;;;;;;;9.28;52.74;100822.47;4989871;28;1570;-94
2022/05/06 07:32:52;;;;;;;;;;;;;;;9.28;52.37;100825.16;5010479;28;1652;-94
2022/05/06 07:35:20;;;;;;;;;;;;;;;9.29;52.72;100824.13;4998427;28;3919;-93
2022/05/06 07:37:47;;;;;;;;;;;;;;;9.28;52.64;100827.84;4996705;28;991;-94
2022/05/06 07:40:14;;;;;;;;;;;;;;;9.28;52.75;100827.84;5007701;28;2575;-96
2022/05/06 07:42:43;;;;;;;;;;;;;;;9.29;52.64;100832.19;5018497;28;1161;-96
2022/05/06 07:45:11;;;;;;;;;;;;;;;9.29;52.63;100826.81;5009653;28;2797;-96
2022/05/06 07:47:37;;;;;;;;;;;;;;;9.29;52.83;100822.28;5012563;28;2220;-96
2022/05/06 07:50:04;;;;;;;;;;;;;;;9.29;52.47;100821.44;5003517;28;3925;-96
2022/05/06 07:52:31;;;;;;;;;;;;;;;9.30;52.53;100815.88;5007358;28;2356;-96
2022/05/06 07:54:57;;;;;;;;;;;;;;;9.31;52.82;100814.00;5009285;28;2508;-96
2022/05/06 07:57:24;;;;;;;;;;;;;;;9.32;52.65;100818.34;4999630;28;2335;-96
2022/05/06 07:59:50;;;;;;;;;;;;;;;9.30;52.46;100813.19;5002660;28;2409;-96
2022/05/06 08:05:01;;;;;;;;;;;;;;;9.32;52.67;100808.44;4993012;28;2113;-96
2022/05/06 08:07:28;;;;;;;;;;;;;;;9.32;52.86;100810.28;5014681;28;1313;-95
2022/05/06 08:09:54;;;;;;;;;;;;;;;9.32;52.53;100811.13;5013816;28;2267;-95
2022/05/06 08:12:21;;;;;;;;;;;;;;;9.33;52.55;100815.47;5004251;28;2036;-94
2022/05/06 08:14:47;;;;;;;;;;;;;;;9.34;52.54;100805.53;5007280;28;4113;-95
2022/05/06 08:17:15;;;;;;;;;;;;;;;9.35;52.71;100806.34;5013594;28;5373;-95
2022/05/06 08:19:42;;;;;;;;;;;;;;;9.36;52.52;100799.97;5009742;28;1774;-95
2022/05/06 08:22:08;;;;;;;;;;;;;;;9.36;52.75;100797.28;5008760;28;1413;-95
2022/05/06 08:24:35;;;;;;;;;;;;;;;9.36;52.84;100783.84;5012878;28;2276;-95
2022/05/06 08:27:01;;;;;;;;;;;;;;;9.38;52.72;100796.00;5011787;28;1416;-96
2022/05/06 08:29:28;;;;;;;;;;;;;;;9.38;52.89;100787.94;5004689;28;4241;-95
2022/05/06 08:31:55;;;;;;;;;;;;;;;9.39;52.73;100781.56;5002056;28;1409;-95
2022/05/06 08:34:22;;;;;;;;;;;;;;;9.39;52.67;100778.88;5013462;28;2454;-95
2022/05/06 08:36:49;;;;;;;;;;;;;;;9.40;52.76;100775.13;5013950;28;1529;-95
2022/05/06 08:39:15;;;;;;;;;;;;;;;9.42;52.84;100772.25;5009299;28;2446;-96
2022/05/06 08:41:42;;;;;;;;;;;;;;;9.42;52.71;100772.25;5014051;28;1251;-96
2022/05/06 08:52:23;;;;;;;;;;;;;;;9.48;52.55;100766.03;4991502;28;1605;-94
2022/05/06 08:54:51;;;;;;;;;;;;;;;9.50;52.65;100770.19;5005659;28;4214;-96
2022/05/06 08:57:17;;;;;;;;;;;;;;;9.49;52.70;100768.50;5008303;28;1418;-96
2022/05/06 08:59:44;;;;;;;;;;;;;;;9.51;52.60;100766.44;5007995;28;4694;-95
2022/05/06 09:02:11;;;;;;;;;;;;;;;9.53;52.67;100768.94;5010223;28;1348;-95
2022/05/06 09:04:37;;;;;;;;;;;;;;;9.53;52.50;100763.56;5005238;28;2413;-95
2022/05/06 09:07:04;;;;;;;;;;;;;;;9.54;52.60;100768.72;5008872;28;2446;-95
2022/05/06 09:09:31;;;;;;;;;;;;;;;9.53;52.67;100764.38;4989264;28;3938;-94
2022/05/06 09:17:26;;;;;;;;;;;;;;;9.57;52.70;100769.34;4989911;28;2086;-95
2022/05/06 09:19:53;;;;;;;;;;;;;;;9.55;52.65;100770.38;5003959;28;2188;-96
2022/05/06 09:22:20;;;;;;;;;;;;;;;9.53;52.68;100768.94;5015703;28;2206;-96
2022/05/06 09:24:47;;;;;;;;;;;;;;;9.53;52.70;100775.16;5018491;28;2064;-96
2022/05/06 09:27:14;;;;;;;;;;;;;;;9.53;53.01;100769.78;4997873;28;4052;-94
2022/05/06 09:29:41;;;;;;;;;;;;;;;9.54;52.76;100771.41;5020985;28;3978;-95
2022/05/06 09:32:07;;;;;;;;;;;;;;;9.56;53.01;100781.97;5013607;28;1577;-94
2022/05/06 09:34:36;;;;;;;;;;;;;;;9.60;52.81;100769.75;5010434;28;2477;-95
2022/05/06 09:37:03;;;;;;;;;;;;;;;9.62;52.72;100765.00;5011564;28;1428;-94
2022/05/06 09:39:29;;;;;;;;;;;;;;;9.61;52.75;100768.72;5013483;28;1578;-94
2022/05/06 09:41:56;;;;;;;;;;;;;;;9.61;52.98;100766.03;5014238;28;1205;-95
2022/05/06 09:44:22;;;;;;;;;;;;;;;9.63;53.01;100765.84;5008613;28;4300;-94
2022/05/06 09:46:49;;;;;;;;;;;;;;;9.65;53.01;100764.59;5011408;28;1460;-95
2022/05/06 09:49:17;;;;;;;;;;;;;;;9.68;52.85;100760.66;5015839;28;1966;-94
2022/05/06 09:51:45;;;;;;;;;;;;;;;9.70;53.15;100758.56;5017078;28;1190;-94
2022/05/06 09:54:12;;;;;;;;;;;;;;;9.70;53.04;100758.56;5005662;28;2540;-95
2022/05/06 09:56:38;;;;;;;;;;;;;;;9.70;53.07;100751.31;4999568;28;1371;-95
2022/05/06 09:59:04;;;;;;;;;;;;;;;9.72;53.16;100746.56;5008592;28;2147;-95
2022/05/06 10:01:31;;;;;;;;;;;;;;;9.72;53.23;100751.13;5006767;28;4313;-95
2022/05/06 10:03:58;;;;;;;;;;;;;;;9.73;53.14;100736.63;5010342;28;4846;-95
2022/05/06 10:06:24;;;;;;;;;;;;;;;9.73;53.33;100740.16;5007356;28;3710;-95
2022/05/06 10:08:51;;;;;;;;;;;;;;;9.73;53.26;100737.44;5017365;28;2519;-94
2022/05/06 10:11:17;;;;;;;;;;;;;;;9.72;53.45;100743.88;5000775;28;1188;-95
2022/05/06 10:13:44;;;;;;;;;;;;;;;9.77;53.24;100748.66;5017764;28;2248;-94
2022/05/06 10:16:10;;;;;;;;;;;;;;;9.80;53.22;100744.72;5003745;28;2044;-95
2022/05/06 10:18:37;;;;;;;;;;;;;;;9.81;53.52;100743.66;5010119;28;4501;-95
2022/05/06 10:21:04;;;;;;;;;;;;;;;9.82;53.47;100743.44;5005385;28;4571;-94
2022/05/06 10:23:30;;;;;;;;;;;;;;;9.81;53.53;100731.03;5012434;28;2059;-94
2022/05/06 10:25:57;;;;;;;;;;;;;;;9.78;53.57;100728.78;5003680;28;1981;-95
2022/05/06 10:33:52;;;;;;;;;;;;;;;9.87;53.78;100719.44;4990680;28;4317;-94
2022/05/06 10:36:19;;;;;;;;;;;;;;;9.89;53.74;100717.38;4997712;28;4279;-95
2022/05/06 10:38:45;;;;;;;;;;;;;;;9.91;53.76;100709.91;4999928;28;1991;-95
2022/05/06 10:41:12;;;;;;;;;;;;;;;9.92;53.58;100714.25;5001247;28;1977;-95
2022/05/06 10:43:39;;;;;;;;;;;;;;;9.94;53.87;100704.13;4996420;28;4786;-95
2022/05/06 10:46:05;;;;;;;;;;;;;;;9.96;53.96;100709.28;5014393;28;4022;-94
2022/05/06 10:48:32;;;;;;;;;;;;;;;9.92;54.19;100702.66;5018216;28;2434;-94
2022/05/06 10:50:58;;;;;;;;;;;;;;;9.91;54.09;100709.91;4993292;28;1410;-95
2022/05/06 10:53:25;;;;;;;;;;;;;;;9.96;54.04;100701.19;5013076;28;2386;-94
2022/05/06 10:55:52;;;;;;;;;;;;;;;9.98;54.14;100699.13;5007572;28;1411;-94
2022/05/06 10:58:18;;;;;;;;;;;;;;;9.99;54.04;100696.22;4997282;28;4444;-94
2022/05/06 11:00:45;;;;;;;;;;;;;;;9.99;54.05;100687.31;5003829;28;4387;-94
2022/05/06 11:03:11;;;;;;;;;;;;;;;10.03;54.03;100693.94;4998999;28;2200;-95
2022/05/06 11:05:38;;;;;;;;;;;;;;;10.06;53.92;100689.97;4998370;28;3866;-95
2022/05/06 11:08:07;;;;;;;;;;;;;;;10.08;54.02;100691.41;5015280;28;2562;-95
2022/05/06 11:10:34;;;;;;;;;;;;;;;10.12;54.08;100691.84;4999196;28;4978;-95
2022/05/06 11:13:01;;;;;;;;;;;;;;;10.13;54.13;100691.63;5014905;28;1609;-95
2022/05/06 11:15:27;;;;;;;;;;;;;;;10.13;54.35;100690.78;5002469;28;1480;-94
2022/05/06 11:17:54;;;;;;;;;;;;;;;10.14;54.43;100693.25;5009962;28;1863;-95
2022/05/06 11:20:23;;;;;;;;;;;;;;;10.17;54.36;100689.31;5008486;28;2518;-95
2022/05/06 11:22:49;;;;;;;;;;;;;;;10.18;54.64;100683.75;4996791;28;1041;-95
2022/05/06 11:25:16;;;;;;;;;;;;;;;10.21;54.64;100680.63;5004627;28;4282;-95
2022/05/06 11:27:42;;;;;;;;;;;;;;;10.23;54.67;100680.38;5009539;28;1326;-95
2022/05/06 11:30:09;;;;;;;;;;;;;;;10.25;54.70;100686.38;4999236;28;4282;-96
2022/05/06 11:32:36;;;;;;;;;;;;;;;10.27;54.61;100675.47;5003545;28;1486;-95
2022/05/06 11:35:03;;;;;;;;;;;;;;;10.29;54.93;100686.81;5003671;28;2135;-96
2022/05/06 11:37:29;;;;;;;;;;;;;;;10.31;55.05;100682.88;5011600;28;2982;-95
2022/05/06 11:40:18;;;;;;;;;;;;;;;10.32;55.03;100679.13;5001483;28;4843;-95
2022/05/06 11:42:43;;;;;;;;;;;;;;;10.34;55.06;100676.22;5014489;28;2535;-95
2022/05/06 11:47:54;;;;;;;;;;;;;;;10.38;55.22;100683.69;4997877;28;2766;-95
2022/05/06 11:50:20;;;;;;;;;;;;;;;10.39;55.21;100674.56;5004208;28;2929;-94
2022/05/06 11:52:48;;;;;;;;;;;;;;;10.40;55.27;100670.81;5014869;28;1357;-95
2022/05/06 11:55:14;;;;;;;;;;;;;;;10.41;55.42;100677.88;5003450;28;4316;-95
2022/05/06 11:57:41;;;;;;;;;;;;;;;10.44;55.33;100663.13;5000579;28;4246;-95
2022/05/06 12:00:07;;;;;;;;;;;;;;;10.45;55.20;100667.47;5011792;28;2408;-95
2022/05/06 12:02:34;;;;;;;;;;;;;;;10.48;55.50;100663.53;5013158;28;1510;-96
2022/05/06 12:05:00;;;;;;;;;;;;;;;10.48;55.55;100658.97;5012019;28;2257;-95
2022/05/06 12:07:27;;;;;;;;;;;;;;;10.50;55.41;100656.03;5014546;28;1208;-96
2022/05/06 12:09:53;;;;;;;;;;;;;;;10.52;55.54;100659.34;5012028;28;2457;-96
2022/05/06 12:12:20;;;;;;;;;;;;;;;10.54;55.59;100647.31;5001657;28;4164;-95
2022/05/06 12:14:47;;;;;;;;;;;;;;;10.56;55.46;100650.63;5012060;28;2029;-95
2022/05/06 12:17:13;;;;;;;;;;;;;;;10.56;55.67;100642.56;5014544;28;1580;-95
2022/05/06 12:19:39;;;;;;;;;;;;;;;10.59;55.71;100646.66;5014775;28;3680;-95
2022/05/06 12:22:06;;;;;;;;;;;;;;;10.60;55.71;100654.53;5013326;28;1628;-96
2022/05/06 12:24:32;;;;;;;;;;;;;;;10.62;55.77;100655.16;4998235;28;4340;-96
2022/05/06 12:26:59;;;;;;;;;;;;;;;10.63;55.63;100648.72;5012618;28;4133;-96
2022/05/06 12:29:26;;;;;;;;;;;;;;;10.65;55.64;100643.13;5008309;28;1897;-96
2022/05/06 12:31:52;;;;;;;;;;;;;;;10.68;55.90;100650.75;4999056;28;1636;-96
2022/05/06 12:34:19;;;;;;;;;;;;;;;10.70;55.82;100648.66;4997976;28;1595;-96
2022/05/06 12:36:46;;;;;;;;;;;;;;;10.73;55.88;100645.53;5014421;28;1540;-95
2022/05/06 12:39:13;;;;;;;;;;;;;;;10.73;55.95;100650.91;5008219;28;2543;-96
2022/05/06 12:41:40;;;;;;;;;;;;;;;10.75;56.16;100640.75;5011977;28;1415;-96
2022/05/06 12:44:06;;;;;;;;;;;;;;;10.75;56.02;100632.66;4988642;28;4256;-95
2022/05/06 12:46:34;;;;;;;;;;;;;;;10.76;56.12;100620.84;5009355;28;1962;-96
2022/05/06 12:51:44;;;;;;;;;;;;;;;10.81;56.12;100625.59;4995484;28;1514;-96
2022/05/06 12:54:11;;;;;;;;;;;;;;;10.83;56.11;100626.19;5006342;28;4263;-96
2022/05/06 12:56:38;;;;;;;;;;;;;;;10.84;56.17;100608.97;4994200;28;1304;-96
2022/05/06 12:59:04;;;;;;;;;;;;;;;10.85;56.24;100607.94;5004968;28;2581;-96
2022/05/06 13:01:31;;;;;;;;;;;;;;;10.87;56.23;100603.97;4994660;28;1329;-96
2022/05/06 13:03:57;;;;;;;;;;;;;;;10.88;56.33;100611.03;5004419;28;2583;-96
2022/05/06 13:06:24;;;;;;;;;;;;;;;10.90;56.19;100608.91;5007786;28;1907;-95
2022/05/06 13:08:50;;;;;;;;;;;;;;;10.92;56.22;100606.00;5007738;28;4927;-96
2022/05/06 13:11:17;;;;;;;;;;;;;;;10.93;56.22;100604.97;5000466;28;1189;-95
2022/05/06 13:13:44;;;;;;;;;;;;;;;10.95;56.34;100599.38;5009402;28;1937;-95
2022/05/06 13:16:11;;;;;;;;;;;;;;;10.97;56.43;100595.41;4997192;28;1018;-96
2022/05/06 13:18:38;;;;;;;;;;;;;;;10.98;56.43;100597.03;5000393;28;2344;-96
2022/05/06 13:21:05;;;;;;;;;;;;;;;10.99;56.46;100593.28;5005041;28;1767;-96
2022/05/06 13:23:32;;;;;;;;;;;;;;;11.01;56.42;100591.22;5006722;28;4400;-95
2022/05/06 13:25:58;;;;;;;;;;;;;;;11.03;56.46;100591.81;5016997;28;1991;-94
2022/05/06 13:28:25;;;;;;;;;;;;;;;11.04;56.59;100587.25;5023895;28;1539;-96
2022/05/06 13:30:52;;;;;;;;;;;;;;;11.07;56.66;100589.50;5004355;28;1364;-96
2022/05/06 13:33:19;;;;;;;;;;;;;;;11.09;56.65;100587.41;5011488;28;2010;-95